createdAt,value
2023-02-06T00:01:26.531Z,12.97
2023-02-06T00:03:56.099Z,13.00
2023-02-06T00:06:24.429Z,11.60
2023-02-06T00:08:52.617Z,10.33
2023-02-06T00:11:21.940Z,10.30
2023-02-06T00:13:50.869Z,8.43
2023-02-06T00:16:20.432Z,7.93
2023-02-06T00:18:48.910Z,7.50
2023-02-06T00:21:20.309Z,7.20
2023-02-06T00:23:48.764Z,5.90
2023-02-06T00:26:17.084Z,6.33
2023-02-06T00:28:45.457Z,5.17
2023-02-06T00:31:14.313Z,5.60
2023-02-06T00:33:43.256Z,5.70
2023-02-06T00:36:12.015Z,4.20
2023-02-06T00:38:41.525Z,5.20
2023-02-06T00:41:09.824Z,4.90
2023-02-06T00:43:37.955Z,4.80
2023-02-06T00:46:06.678Z,4.80
2023-02-06T00:48:34.781Z,3.93
2023-02-06T00:51:03.089Z,4.10
2023-02-06T00:53:31.274Z,4.50
2023-02-06T00:56:01.125Z,4.53
2023-02-06T00:58:29.224Z,4.40
2023-02-06T01:00:57.414Z,3.70
2023-02-06T01:03:25.689Z,3.90
2023-02-06T01:05:53.780Z,4.20
2023-02-06T01:08:23.189Z,4.17
2023-02-06T01:10:52.992Z,4.20
2023-02-06T01:13:23.284Z,4.50
2023-02-06T01:15:51.776Z,4.80
2023-02-06T01:18:19.972Z,4.53
2023-02-06T01:20:48.063Z,4.77
2023-02-06T01:23:16.502Z,4.63
2023-02-06T01:25:45.608Z,4.80
2023-02-06T01:28:13.845Z,4.77
2023-02-06T01:30:43.512Z,4.90
2023-02-06T01:33:11.739Z,4.73
2023-02-06T01:35:39.893Z,4.07
2023-02-06T01:38:08.855Z,4.90
2023-02-06T01:40:37.013Z,4.90
2023-02-06T01:43:05.244Z,3.73
2023-02-06T01:45:42.186Z,4.13
2023-02-06T01:48:15.975Z,4.33
2023-02-06T01:50:48.550Z,3.93
2023-02-06T01:53:18.958Z,3.80
2023-02-06T01:55:49.157Z,4.40
2023-02-06T01:58:21.072Z,4.03
2023-02-06T02:00:50.551Z,4.37
2023-02-06T02:03:20.158Z,3.93
2023-02-06T02:05:50.314Z,4.30
2023-02-06T02:08:22.116Z,4.77
2023-02-06T02:10:51.515Z,5.17
2023-02-06T02:13:19.673Z,5.40
2023-02-06T02:15:58.752Z,4.93
2023-02-06T02:18:44.574Z,5.70
2023-02-06T02:21:47.058Z,4.80
2023-02-06T02:24:23.761Z,4.67
2023-02-06T02:27:24.381Z,5.13
2023-02-06T02:30:17.670Z,4.97
2023-02-06T02:33:23.238Z,4.73
2023-02-06T02:35:59.741Z,4.93
2023-02-06T02:38:40.621Z,5.27
2023-02-06T02:41:16.835Z,6.30
2023-02-06T02:43:51.406Z,5.20
2023-02-06T02:46:25.397Z,5.43
2023-02-06T02:48:56.173Z,4.80
2023-02-06T02:51:26.487Z,5.10
2023-02-06T02:53:57.567Z,4.60
2023-02-06T02:56:27.360Z,6.10
2023-02-06T02:59:01.720Z,6.00
2023-02-06T03:01:34.396Z,5.97
2023-02-06T03:04:18.012Z,5.80
2023-02-06T03:07:08.688Z,7.37
2023-02-06T03:09:48.001Z,5.90
2023-02-06T03:12:23.750Z,6.80
2023-02-06T03:14:56.708Z,6.33
2023-02-06T03:17:34.458Z,6.70
2023-02-06T03:20:07.790Z,7.43
2023-02-06T03:22:40.427Z,7.40
2023-02-06T03:25:13.504Z,7.23
2023-02-06T03:27:44.141Z,6.47
2023-02-06T03:30:15.046Z,6.80
2023-02-06T03:32:47.178Z,8.50
2023-02-06T03:35:19.266Z,6.33
2023-02-06T03:37:50.742Z,7.40
2023-02-06T03:40:20.069Z,7.43
2023-02-06T03:42:52.111Z,7.90
2023-02-06T03:45:26.745Z,7.93
2023-02-06T03:47:57.851Z,8.77
2023-02-06T03:50:27.628Z,9.00
2023-02-06T03:52:59.857Z,10.10
2023-02-06T03:55:28.224Z,9.20
2023-02-06T03:58:00.246Z,9.63
2023-02-06T04:00:30.963Z,10.87
2023-02-06T04:03:00.515Z,11.30
2023-02-06T04:05:29.227Z,13.53
2023-02-06T04:07:58.726Z,13.90
2023-02-06T04:10:26.984Z,12.50
2023-02-06T04:12:55.598Z,13.70
2023-02-06T04:15:23.829Z,14.10
2023-02-06T04:18:00.437Z,14.80
2023-02-06T04:20:30.208Z,15.40
2023-02-06T04:23:00.047Z,14.80
2023-02-06T04:25:28.209Z,15.07
2023-02-06T04:27:56.393Z,15.80
2023-02-06T04:30:24.666Z,17.50
2023-02-06T04:32:52.968Z,17.83
2023-02-06T04:35:21.465Z,16.20
2023-02-06T04:37:49.940Z,16.97
2023-02-06T04:40:20.265Z,16.40
2023-02-06T04:42:48.743Z,15.70
2023-02-06T04:45:16.923Z,16.20
2023-02-06T04:47:49.409Z,16.40
2023-02-06T04:50:17.983Z,17.40
2023-02-06T04:52:46.294Z,18.80
2023-02-06T04:55:14.478Z,19.10
2023-02-06T04:57:44.191Z,18.40
2023-02-06T05:00:14.710Z,20.63
2023-02-06T05:02:42.936Z,20.47
2023-02-06T05:05:11.319Z,20.50
2023-02-06T05:07:39.516Z,20.33
2023-02-06T05:10:09.013Z,20.33
2023-02-06T05:12:37.456Z,20.60
2023-02-06T05:15:08.867Z,21.60
2023-02-06T05:17:37.708Z,21.17
2023-02-06T05:20:07.869Z,20.60
2023-02-06T05:22:36.156Z,20.70
2023-02-06T05:25:04.466Z,20.37
2023-02-06T05:27:32.737Z,22.40
2023-02-06T05:30:01.253Z,19.93
2023-02-06T05:32:30.893Z,20.63
2023-02-06T05:34:59.157Z,19.90
2023-02-06T05:37:27.451Z,19.37
2023-02-06T05:39:55.631Z,19.67
2023-02-06T05:42:23.900Z,19.37
2023-02-06T05:44:52.519Z,17.47
2023-02-06T05:47:20.693Z,14.97
2023-02-06T05:49:50.624Z,15.90
2023-02-06T05:52:19.259Z,16.00
2023-02-06T05:54:47.401Z,15.50
2023-02-06T05:57:15.708Z,15.20
2023-02-06T05:59:43.785Z,15.80
2023-02-06T06:02:11.962Z,14.90
2023-02-06T06:04:40.411Z,14.43
2023-02-06T06:07:09.999Z,17.03
2023-02-06T06:09:38.429Z,17.90
2023-02-06T06:12:07.286Z,18.10
2023-02-06T06:14:35.551Z,18.03
2023-02-06T06:17:04.190Z,18.60
2023-02-06T06:19:32.492Z,21.20
2023-02-06T06:22:00.718Z,20.77
2023-02-06T06:24:30.330Z,21.20
2023-02-06T06:26:59.563Z,22.40
2023-02-06T06:29:28.517Z,21.80
2023-02-06T06:31:56.970Z,22.27
2023-02-06T06:34:26.221Z,21.37
2023-02-06T06:36:54.654Z,25.47
2023-02-06T06:39:22.987Z,23.47
2023-02-06T06:41:52.849Z,23.40
2023-02-06T06:44:21.145Z,25.17
2023-02-06T06:46:49.277Z,23.67
2023-02-06T06:49:17.396Z,24.50
2023-02-06T06:51:45.622Z,23.10
2023-02-06T06:54:14.497Z,22.70
2023-02-06T06:56:42.906Z,21.73
2023-02-06T06:59:12.397Z,21.93
2023-02-06T07:01:40.526Z,21.07
2023-02-06T07:04:08.856Z,20.87
2023-02-06T07:06:37.055Z,20.70
2023-02-06T07:09:05.265Z,19.33
2023-02-06T07:11:33.443Z,21.40
2023-02-06T07:14:01.713Z,20.23
2023-02-06T07:16:31.275Z,22.13
2023-02-06T07:18:59.482Z,21.70
2023-02-06T07:21:27.700Z,22.07
2023-02-06T07:23:55.966Z,22.83
2023-02-06T07:26:24.114Z,25.13
2023-02-06T07:28:52.750Z,26.90
2023-02-06T07:31:21.115Z,26.20
2023-02-06T07:33:50.728Z,23.23
2023-02-06T07:36:19.735Z,23.90
2023-02-06T07:38:47.919Z,22.60
2023-02-06T07:41:17.889Z,23.30
2023-02-06T07:43:46.126Z,22.83
2023-02-06T07:46:14.367Z,20.53
2023-02-06T07:48:42.479Z,21.73
2023-02-06T07:51:12.129Z,21.07
2023-02-06T07:53:40.339Z,19.80
2023-02-06T07:56:12.995Z,18.70
2023-02-06T07:58:41.602Z,18.47
2023-02-06T08:01:10.352Z,17.37
2023-02-06T08:03:38.556Z,16.93
2023-02-06T08:06:12.670Z,19.30
2023-02-06T08:08:40.806Z,18.20
2023-02-06T08:11:10.681Z,17.80
2023-02-06T08:13:39.200Z,16.33
2023-02-06T08:16:09.431Z,19.40
2023-02-06T08:18:38.089Z,19.67
2023-02-06T08:21:08.187Z,18.60
2023-02-06T08:23:37.765Z,18.33
2023-02-06T08:26:07.698Z,17.93
2023-02-06T08:28:36.655Z,16.17
2023-02-06T08:31:11.274Z,16.90
2023-02-06T08:33:39.557Z,15.10
2023-02-06T08:36:09.207Z,15.30
2023-02-06T08:38:39.333Z,14.33
2023-02-06T08:41:19.308Z,15.67
2023-02-06T08:43:47.846Z,17.10
2023-02-06T08:46:17.127Z,16.43
2023-02-06T08:48:45.455Z,18.83
2023-02-06T08:51:14.540Z,21.80
2023-02-06T08:53:44.045Z,24.90
2023-02-06T08:56:13.382Z,22.60
2023-02-06T08:58:41.838Z,22.30
2023-02-06T09:01:11.101Z,24.37
2023-02-06T09:03:39.258Z,22.50
2023-02-06T09:06:10.223Z,22.57
2023-02-06T09:08:39.186Z,22.57
2023-02-06T09:11:09.587Z,21.53
2023-02-06T09:13:38.230Z,22.10
2023-02-06T09:16:07.606Z,20.23
2023-02-06T09:18:35.790Z,19.93
2023-02-06T09:21:05.692Z,19.00
2023-02-06T09:23:33.912Z,19.27
2023-02-06T09:26:02.015Z,19.60
2023-02-06T09:28:31.700Z,19.40
2023-02-06T09:30:59.942Z,18.50
2023-02-06T09:33:28.262Z,19.20
2023-02-06T09:36:04.887Z,18.40
2023-02-06T09:38:33.667Z,18.67
2023-02-06T09:41:04.899Z,22.10
2023-02-06T09:43:35.812Z,21.23
2023-02-06T09:46:06.982Z,26.53
2023-02-06T09:48:38.822Z,21.67
2023-02-06T09:51:15.597Z,21.37
2023-02-06T09:53:51.064Z,18.70
2023-02-06T09:56:28.965Z,18.80
2023-02-06T09:59:04.542Z,18.60
2023-02-06T10:01:38.537Z,21.17
2023-02-06T10:04:28.210Z,21.53
2023-02-06T10:07:05.460Z,19.10
2023-02-06T10:09:41.480Z,19.53
2023-02-06T10:12:16.963Z,19.53
2023-02-06T10:14:50.297Z,17.67
2023-02-06T10:17:24.076Z,21.07
2023-02-06T10:19:58.581Z,20.87
2023-02-06T10:22:32.316Z,21.93
2023-02-06T10:25:16.341Z,19.33
2023-02-06T10:27:46.735Z,20.80
2023-02-06T10:30:20.880Z,20.30
2023-02-06T10:32:57.848Z,19.77
2023-02-06T10:35:46.262Z,20.50
2023-02-06T10:38:36.315Z,16.93
2023-02-06T10:41:10.073Z,16.67
2023-02-06T10:43:46.736Z,16.17
2023-02-06T10:46:35.047Z,16.03
2023-02-06T10:49:11.210Z,17.20
2023-02-06T10:51:43.040Z,17.77
2023-02-06T10:54:24.220Z,15.17
2023-02-06T10:56:54.407Z,14.67
2023-02-06T10:59:29.306Z,14.33
2023-02-06T11:02:12.862Z,13.67
2023-02-06T11:04:47.180Z,16.73
2023-02-06T11:07:18.573Z,16.40
2023-02-06T11:09:46.784Z,13.57
2023-02-06T11:12:30.795Z,14.40
2023-02-06T11:15:02.770Z,14.27
2023-02-06T11:17:32.722Z,13.53
2023-02-06T11:20:16.585Z,12.07
2023-02-06T11:22:52.585Z,13.03
2023-02-06T11:25:27.097Z,11.37
2023-02-06T11:27:56.326Z,11.40
2023-02-06T11:30:34.960Z,10.10
2023-02-06T11:33:07.071Z,10.17
2023-02-06T11:35:39.141Z,9.47
2023-02-06T11:38:16.667Z,9.30
2023-02-06T11:40:54.495Z,8.20
2023-02-06T11:43:24.339Z,7.90
2023-02-06T11:46:07.883Z,7.03
2023-02-06T11:48:42.874Z,7.90
2023-02-06T11:51:13.713Z,7.37
2023-02-06T11:53:56.250Z,6.73
2023-02-06T11:56:24.552Z,8.70
2023-02-06T11:59:06.839Z,6.97
2023-02-06T12:01:43.134Z,6.30
2023-02-06T12:04:23.724Z,7.07
2023-02-06T12:06:56.067Z,7.20
2023-02-06T12:09:24.273Z,7.43
2023-02-06T12:11:57.793Z,8.00
2023-02-06T12:14:34.091Z,6.53
2023-02-06T12:17:07.006Z,6.50
2023-02-06T12:19:46.444Z,7.50
2023-02-06T12:22:19.567Z,7.30
2023-02-06T12:24:50.070Z,6.60
2023-02-06T12:27:21.816Z,7.07
2023-02-06T12:29:58.114Z,5.00
2023-02-06T12:32:31.421Z,5.50
2023-02-06T12:35:14.606Z,6.10
2023-02-06T12:37:48.616Z,5.50
2023-02-06T12:40:26.691Z,4.90
2023-02-06T12:43:00.896Z,5.10
2023-02-06T12:45:40.388Z,5.10
2023-02-06T12:48:15.522Z,5.10
2023-02-06T12:50:48.719Z,6.27
2023-02-06T12:53:21.245Z,5.00
2023-02-06T12:55:55.807Z,8.13
2023-02-06T12:58:29.148Z,8.53
2023-02-06T13:01:30.621Z,8.70
2023-02-06T13:04:04.484Z,8.33
2023-02-06T13:06:43.672Z,8.70
2023-02-06T13:09:21.596Z,8.80
2023-02-06T13:11:49.932Z,7.43
2023-02-06T13:14:21.316Z,8.30
2023-02-06T13:16:54.850Z,6.70
2023-02-06T13:19:28.177Z,6.67
2023-02-06T13:22:45.331Z,5.87
2023-02-06T13:25:53.528Z,5.73
2023-02-06T13:28:41.036Z,6.00
2023-02-06T13:31:27.226Z,6.27
2023-02-06T13:33:59.332Z,5.00
2023-02-06T13:36:42.840Z,5.73
2023-02-06T13:39:23.749Z,5.70
2023-02-06T13:41:53.047Z,6.20
2023-02-06T13:44:27.426Z,6.70
2023-02-06T13:47:31.823Z,6.37
2023-02-06T13:50:29.036Z,6.30
2023-02-06T13:53:17.509Z,6.03
2023-02-06T13:55:59.050Z,5.37
2023-02-06T13:58:47.554Z,6.30
2023-02-06T14:01:20.064Z,5.40
2023-02-06T14:03:51.040Z,4.70
2023-02-06T14:06:42.113Z,3.80
2023-02-06T14:09:30.662Z,4.07
2023-02-06T14:12:27.422Z,3.60
2023-02-06T14:15:05.805Z,3.57
2023-02-06T14:17:46.358Z,4.07
2023-02-06T14:20:29.058Z,3.60
2023-02-06T14:23:05.753Z,3.93
2023-02-06T14:25:48.516Z,4.60
2023-02-06T14:28:28.866Z,4.87
2023-02-06T14:31:06.325Z,5.00
2023-02-06T14:34:03.105Z,4.77
2023-02-06T14:36:51.348Z,5.53
2023-02-06T14:39:50.920Z,5.30
2023-02-06T14:42:23.754Z,5.37
2023-02-06T14:44:57.236Z,5.13
2023-02-06T14:47:28.645Z,4.17
2023-02-06T14:49:59.888Z,4.97
2023-02-06T14:52:33.234Z,4.07
2023-02-06T14:55:01.725Z,3.63
2023-02-06T14:57:32.333Z,4.20
2023-02-06T15:00:04.404Z,3.80
2023-02-06T15:02:34.470Z,3.70
2023-02-06T15:05:04.313Z,3.90
2023-02-06T15:07:34.089Z,4.20
2023-02-06T15:10:07.451Z,4.30
2023-02-06T15:12:36.109Z,4.20
2023-02-06T15:15:17.488Z,3.50
2023-02-06T15:17:56.755Z,4.07
2023-02-06T15:20:27.492Z,4.27
2023-02-06T15:23:11.627Z,3.50
2023-02-06T15:25:55.234Z,4.50
2023-02-06T15:28:28.742Z,3.83
2023-02-06T15:31:00.045Z,3.77
2023-02-06T15:33:30.652Z,4.07
2023-02-06T15:36:01.556Z,3.60
2023-02-06T15:38:33.062Z,3.73
2023-02-06T15:41:04.515Z,3.93
2023-02-06T15:43:34.217Z,3.77
2023-02-06T15:46:06.054Z,4.30
2023-02-06T15:48:38.320Z,4.03
2023-02-06T15:51:23.878Z,3.73
2023-02-06T15:53:54.038Z,3.87
2023-02-06T15:56:27.341Z,3.73
2023-02-06T15:58:59.024Z,5.33
2023-02-06T16:01:32.071Z,4.00
2023-02-06T16:04:04.661Z,3.40
2023-02-06T16:06:33.077Z,3.80
2023-02-06T16:09:06.426Z,3.07
2023-02-06T16:11:52.894Z,3.90
2023-02-06T16:14:25.847Z,3.83
2023-02-06T16:17:01.041Z,4.10
2023-02-06T16:19:38.749Z,3.00
2023-02-06T16:22:16.015Z,3.33
2023-02-06T16:24:44.578Z,3.47
2023-02-06T16:27:19.131Z,3.97
2023-02-06T16:29:49.999Z,3.63
2023-02-06T16:32:23.792Z,3.40
2023-02-06T16:34:53.139Z,2.90
2023-02-06T16:37:23.211Z,2.93
2023-02-06T16:39:51.392Z,2.47
2023-02-06T16:42:21.659Z,3.50
2023-02-06T16:44:52.856Z,3.10
2023-02-06T16:47:23.144Z,3.00
2023-02-06T16:49:52.122Z,3.20
2023-02-06T16:52:25.450Z,3.27
2023-02-06T16:54:55.683Z,2.97
2023-02-06T16:57:27.800Z,3.50
2023-02-06T16:59:56.020Z,3.87
2023-02-06T17:02:26.458Z,3.33
2023-02-06T17:04:55.134Z,3.77
2023-02-06T17:07:26.653Z,3.40
2023-02-06T17:09:56.835Z,3.97
2023-02-06T17:12:25.465Z,3.80
2023-02-06T17:14:54.010Z,3.83
2023-02-06T17:17:23.845Z,4.13
2023-02-06T17:19:54.353Z,5.40
2023-02-06T17:22:22.662Z,6.57
2023-02-06T17:24:51.038Z,6.43
2023-02-06T17:27:20.834Z,7.20
2023-02-06T17:29:50.520Z,8.10
2023-02-06T17:32:22.911Z,7.70
2023-02-06T17:34:54.149Z,7.57
2023-02-06T17:37:22.485Z,7.50
2023-02-06T17:39:51.587Z,6.43
2023-02-06T17:42:21.914Z,7.03
2023-02-06T17:44:50.512Z,5.10
2023-02-06T17:47:18.720Z,4.20
2023-02-06T17:49:47.767Z,5.00
2023-02-06T17:52:17.714Z,6.27
2023-02-06T17:54:46.288Z,20.60
2023-02-06T17:57:14.771Z,14.20
2023-02-06T17:59:42.935Z,8.20
2023-02-06T18:02:13.877Z,6.10
2023-02-06T18:04:43.383Z,7.80
2023-02-06T18:07:12.436Z,7.03
2023-02-06T18:09:42.449Z,7.67
2023-02-06T18:12:11.240Z,12.50
2023-02-06T18:14:39.989Z,12.20
2023-02-06T18:17:08.850Z,10.70
2023-02-06T18:19:42.214Z,10.77
2023-02-06T18:22:12.385Z,11.07
2023-02-06T18:24:42.157Z,11.90
2023-02-06T18:27:11.051Z,11.20
2023-02-06T18:29:49.333Z,10.37
2023-02-06T18:32:19.978Z,9.90
2023-02-06T18:34:48.848Z,8.87
2023-02-06T18:37:17.461Z,9.63
2023-02-06T18:39:47.093Z,8.60
2023-02-06T18:42:32.851Z,8.00
2023-02-06T18:45:03.265Z,7.03
2023-02-06T18:47:32.258Z,7.00
2023-02-06T18:50:00.437Z,10.10
2023-02-06T18:52:29.140Z,10.63
2023-02-06T18:54:58.761Z,12.73
2023-02-06T18:57:26.987Z,12.17
2023-02-06T18:59:55.158Z,12.47
2023-02-06T19:02:23.614Z,13.80
2023-02-06T19:04:51.721Z,17.40
2023-02-06T19:07:19.845Z,14.50
2023-02-06T19:09:48.005Z,13.67
2023-02-06T19:12:17.545Z,11.37
2023-02-06T19:14:45.932Z,13.13
2023-02-06T19:17:14.116Z,10.83
2023-02-06T19:19:42.253Z,12.33
2023-02-06T19:22:10.634Z,13.60
2023-02-06T19:24:38.833Z,11.83
2023-02-06T19:27:07.402Z,7.53
2023-02-06T19:29:36.944Z,6.03
2023-02-06T19:32:06.004Z,5.73
2023-02-06T19:34:36.304Z,3.50
2023-02-06T19:37:04.972Z,3.20
2023-02-06T19:39:34.477Z,2.90
2023-02-06T19:42:05.600Z,3.87
2023-02-06T19:44:36.052Z,3.17
2023-02-06T19:47:04.773Z,2.87
2023-02-06T19:49:33.547Z,3.07
2023-02-06T19:52:02.143Z,3.40
2023-02-06T19:54:30.341Z,4.67
2023-02-06T19:57:00.703Z,4.00
2023-02-06T19:59:30.823Z,4.07
2023-02-06T20:02:02.508Z,4.30
2023-02-06T20:04:34.174Z,4.53
2023-02-06T20:07:02.933Z,3.63
2023-02-06T20:09:31.845Z,4.33
2023-02-06T20:12:00.250Z,4.10
2023-02-06T20:14:28.401Z,4.60
2023-02-06T20:16:56.631Z,5.17
2023-02-06T20:19:29.107Z,5.00
2023-02-06T20:21:59.102Z,3.93
2023-02-06T20:24:30.198Z,4.03
2023-02-06T20:27:01.158Z,4.70
2023-02-06T20:29:32.159Z,4.67
2023-02-06T20:32:01.752Z,4.10
2023-02-06T20:34:31.464Z,4.30
2023-02-06T20:36:59.721Z,4.53
2023-02-06T20:39:28.776Z,5.40
2023-02-06T20:41:57.165Z,5.30
2023-02-06T20:44:26.185Z,5.27
2023-02-06T20:46:54.661Z,5.03
2023-02-06T20:49:24.447Z,5.10
2023-02-06T20:51:54.080Z,7.83
2023-02-06T20:54:23.202Z,10.20
2023-02-06T20:56:51.606Z,8.67
2023-02-06T20:59:21.424Z,8.70
2023-02-06T21:01:49.847Z,7.40
2023-02-06T21:04:18.758Z,6.07
2023-02-06T21:06:48.030Z,6.90
2023-02-06T21:09:18.468Z,7.47
2023-02-06T21:11:48.632Z,6.43
2023-02-06T21:14:17.743Z,6.27
2023-02-06T21:16:46.342Z,6.50
2023-02-06T21:19:16.057Z,6.80
2023-02-06T21:21:46.332Z,8.40
2023-02-06T21:24:15.858Z,7.80
2023-02-06T21:26:45.903Z,7.70
2023-02-06T21:29:15.369Z,8.20
2023-02-06T21:31:44.175Z,7.07
2023-02-06T21:34:14.815Z,7.70
2023-02-06T21:36:44.058Z,7.90
2023-02-06T21:39:15.485Z,8.13
2023-02-06T21:41:45.316Z,8.13
2023-02-06T21:44:13.425Z,8.50
2023-02-06T21:46:41.587Z,8.47
2023-02-06T21:49:11.856Z,9.00
2023-02-06T21:51:40.370Z,9.90
2023-02-06T21:54:09.095Z,9.63
2023-02-06T21:56:39.410Z,10.47
2023-02-06T21:59:09.426Z,8.00
2023-02-06T22:01:40.547Z,9.93
2023-02-06T22:04:09.837Z,9.37
2023-02-06T22:06:38.686Z,9.40
2023-02-06T22:09:08.984Z,9.50
2023-02-06T22:11:38.656Z,9.73
2023-02-06T22:14:11.396Z,8.70
2023-02-06T22:16:39.907Z,8.33
2023-02-06T22:19:08.863Z,7.93
2023-02-06T22:21:37.252Z,8.07
2023-02-06T22:24:07.684Z,7.30
2023-02-06T22:26:38.828Z,6.13
2023-02-06T22:29:11.018Z,5.20
2023-02-06T22:31:43.173Z,5.50
2023-02-06T22:34:16.503Z,5.50
2023-02-06T22:36:45.635Z,5.07
2023-02-06T22:39:15.068Z,5.23
2023-02-06T22:41:45.143Z,5.83
2023-02-06T22:44:16.500Z,5.73
2023-02-06T22:46:46.873Z,5.30
2023-02-06T22:49:15.801Z,5.43
2023-02-06T22:51:44.453Z,5.00
2023-02-06T22:54:13.378Z,4.73
2023-02-06T22:56:42.685Z,4.90
2023-02-06T22:59:12.876Z,5.20
2023-02-06T23:01:44.787Z,5.60
2023-02-06T23:04:15.975Z,6.37
2023-02-06T23:06:45.364Z,5.67
2023-02-06T23:09:16.730Z,7.67
2023-02-06T23:11:45.401Z,6.93
2023-02-06T23:14:15.850Z,6.03
2023-02-06T23:16:45.924Z,5.60
2023-02-06T23:19:15.739Z,6.37
2023-02-06T23:21:46.287Z,5.13
2023-02-06T23:24:14.841Z,5.00
2023-02-06T23:26:44.525Z,5.30
2023-02-06T23:29:15.959Z,5.70
2023-02-06T23:31:46.080Z,4.23
2023-02-06T23:34:15.197Z,4.00
2023-02-06T23:36:43.451Z,3.77
2023-02-06T23:39:12.579Z,3.43
2023-02-06T23:41:40.885Z,2.87
2023-02-06T23:44:09.993Z,3.43
2023-02-06T23:46:39.838Z,2.70
2023-02-06T23:49:10.321Z,3.13
2023-02-06T23:51:38.993Z,2.53
2023-02-06T23:54:08.743Z,3.30
2023-02-06T23:56:37.227Z,3.20
2023-02-06T23:59:07.220Z,3.90
